createdAt,value
2023-03-04T00:01:13.057Z,16.47
2023-03-04T00:03:40.901Z,14.77
2023-03-04T00:06:09.467Z,12.70
2023-03-04T00:08:38.158Z,18.00
2023-03-04T00:11:06.307Z,12.03
2023-03-04T00:13:35.625Z,12.50
2023-03-04T00:16:03.552Z,11.97
2023-03-04T00:18:31.387Z,12.13
2023-03-04T00:20:59.235Z,11.70
2023-03-04T00:23:27.360Z,15.03
2023-03-04T00:25:55.262Z,12.83
2023-03-04T00:28:23.557Z,13.50
2023-03-04T00:30:53.162Z,14.23
2023-03-04T00:33:21.166Z,12.33
2023-03-04T00:35:49.154Z,13.63
2023-03-04T00:38:17.161Z,12.53
2023-03-04T00:40:45.010Z,11.83
2023-03-04T00:43:12.889Z,9.70
2023-03-04T00:45:40.867Z,12.10
2023-03-04T00:48:10.153Z,9.30
2023-03-04T00:50:38.050Z,7.67
2023-03-04T00:53:06.239Z,9.00
2023-03-04T00:55:34.198Z,9.53
2023-03-04T00:58:02.060Z,8.20
2023-03-04T01:00:30.331Z,6.93
2023-03-04T01:02:58.283Z,9.23
2023-03-04T01:05:27.678Z,6.97
2023-03-04T01:07:56.380Z,7.93
2023-03-04T01:10:24.339Z,9.73
2023-03-04T01:12:52.221Z,8.87
2023-03-04T01:15:20.354Z,10.33
2023-03-04T01:17:48.754Z,12.43
2023-03-04T01:20:17.145Z,9.03
2023-03-04T01:22:46.953Z,8.97
2023-03-04T01:25:14.894Z,8.00
2023-03-04T01:27:42.841Z,8.97
2023-03-04T01:30:12.293Z,11.37
2023-03-04T01:32:40.291Z,9.60
2023-03-04T01:35:09.060Z,8.13
2023-03-04T01:37:37.134Z,9.70
2023-03-04T01:40:07.310Z,8.67
2023-03-04T01:42:37.052Z,5.90
2023-03-04T01:45:07.399Z,7.83
2023-03-04T01:47:36.700Z,8.43
2023-03-04T01:50:12.296Z,8.77
2023-03-04T01:52:43.339Z,9.40
2023-03-04T01:55:17.296Z,6.80
2023-03-04T01:57:46.724Z,10.97
2023-03-04T02:00:37.318Z,6.47
2023-03-04T02:03:11.597Z,9.77
2023-03-04T02:05:42.814Z,8.67
2023-03-04T02:08:11.891Z,10.60
2023-03-04T02:10:43.192Z,6.40
2023-03-04T02:13:11.997Z,10.07
2023-03-04T02:15:40.022Z,9.03
2023-03-04T02:18:15.835Z,9.00
2023-03-04T02:20:52.163Z,9.80
2023-03-04T02:23:27.392Z,9.80
2023-03-04T02:26:10.552Z,9.63
2023-03-04T02:28:38.547Z,9.77
2023-03-04T02:31:06.603Z,11.23
2023-03-04T02:33:34.679Z,9.10
2023-03-04T02:36:02.823Z,8.93
2023-03-04T02:38:30.725Z,9.60
2023-03-04T02:40:59.806Z,12.17
2023-03-04T02:43:29.265Z,11.67
2023-03-04T02:45:57.286Z,9.97
2023-03-04T02:48:25.268Z,9.90
2023-03-04T02:50:54.841Z,9.30
2023-03-04T02:53:23.394Z,11.03
2023-03-04T02:55:51.302Z,10.03
2023-03-04T02:58:19.444Z,11.63
2023-03-04T03:00:49.106Z,9.17
2023-03-04T03:03:17.458Z,12.97
2023-03-04T03:05:45.951Z,11.13
2023-03-04T03:08:13.801Z,8.80
2023-03-04T03:10:41.724Z,10.80
2023-03-04T03:13:10.121Z,11.40
2023-03-04T03:15:42.186Z,9.03
2023-03-04T03:18:12.761Z,12.17
2023-03-04T03:20:40.752Z,11.73
2023-03-04T03:23:09.223Z,10.83
2023-03-04T03:25:37.323Z,10.33
2023-03-04T03:28:05.554Z,7.60
2023-03-04T03:30:33.506Z,8.50
2023-03-04T03:33:01.846Z,8.77
2023-03-04T03:35:31.261Z,7.30
2023-03-04T03:37:59.267Z,11.37
2023-03-04T03:40:27.290Z,10.33
2023-03-04T03:42:55.201Z,13.00
2023-03-04T03:45:23.268Z,11.40
2023-03-04T03:47:51.457Z,10.60
2023-03-04T03:50:19.787Z,8.53
2023-03-04T03:52:49.103Z,9.20
2023-03-04T03:55:17.035Z,8.53
2023-03-04T03:57:44.858Z,10.23
2023-03-04T04:00:14.049Z,12.43
2023-03-04T04:02:42.574Z,11.63
2023-03-04T04:05:11.898Z,10.53
2023-03-04T04:07:42.062Z,14.10
2023-03-04T04:10:13.270Z,12.03
2023-03-04T04:12:41.251Z,13.67
2023-03-04T04:15:12.215Z,12.10
2023-03-04T04:17:40.501Z,11.00
2023-03-04T04:20:10.031Z,9.87
2023-03-04T04:22:37.864Z,10.37
2023-03-04T04:25:09.084Z,8.60
2023-03-04T04:27:38.824Z,14.73
2023-03-04T04:30:08.165Z,10.00
2023-03-04T04:32:36.146Z,10.77
2023-03-04T04:35:04.017Z,17.17
2023-03-04T04:37:32.601Z,10.73
2023-03-04T04:40:00.784Z,10.70
2023-03-04T04:42:28.861Z,14.87
2023-03-04T04:44:58.412Z,12.43
2023-03-04T04:47:26.478Z,12.00
2023-03-04T04:49:54.437Z,8.87
2023-03-04T04:52:22.325Z,8.40
2023-03-04T04:54:50.268Z,12.37
2023-03-04T04:57:18.191Z,11.27
2023-03-04T04:59:46.098Z,9.10
2023-03-04T05:02:15.883Z,11.33
2023-03-04T05:04:44.144Z,9.03
2023-03-04T05:07:12.345Z,13.60
2023-03-04T05:09:40.510Z,10.67
2023-03-04T05:12:08.579Z,14.13
2023-03-04T05:14:36.491Z,10.70
2023-03-04T05:17:04.480Z,10.87
2023-03-04T05:19:33.876Z,12.07
2023-03-04T05:22:01.836Z,12.10
2023-03-04T05:24:29.868Z,11.90
2023-03-04T05:26:57.766Z,13.67
2023-03-04T05:29:25.639Z,13.10
2023-03-04T05:31:53.663Z,8.80
2023-03-04T05:34:21.614Z,9.73
2023-03-04T05:36:50.884Z,11.97
2023-03-04T05:39:19.060Z,14.30
2023-03-04T05:41:47.011Z,10.13
2023-03-04T05:44:15.062Z,14.73
2023-03-04T05:46:43.494Z,9.33
2023-03-04T05:49:11.409Z,9.10
2023-03-04T05:51:39.316Z,16.47
2023-03-04T05:54:08.676Z,16.57
2023-03-04T05:56:36.864Z,13.57
2023-03-04T05:59:04.731Z,17.93
2023-03-04T06:01:32.929Z,12.60
2023-03-04T06:04:01.114Z,14.23
2023-03-04T06:06:29.166Z,16.40
2023-03-04T06:08:57.109Z,14.50
2023-03-04T06:11:26.470Z,20.63
2023-03-04T06:13:54.403Z,21.03
2023-03-04T06:16:22.523Z,22.70
2023-03-04T06:18:50.407Z,18.33
2023-03-04T06:21:18.420Z,22.50
2023-03-04T06:23:47.391Z,26.00
2023-03-04T06:26:15.948Z,18.03
2023-03-04T06:28:46.083Z,21.13
2023-03-04T06:31:14.149Z,21.67
2023-03-04T06:33:42.112Z,23.97
2023-03-04T06:36:10.232Z,23.33
2023-03-04T06:38:38.142Z,18.87
2023-03-04T06:41:10.132Z,18.77
2023-03-04T06:43:38.786Z,17.03
2023-03-04T06:46:09.557Z,17.60
2023-03-04T06:48:38.323Z,18.17
2023-03-04T06:51:08.113Z,19.70
2023-03-04T06:53:36.432Z,16.07
2023-03-04T06:56:04.589Z,21.27
2023-03-04T06:58:32.663Z,11.87
2023-03-04T07:01:12.642Z,16.57
2023-03-04T07:03:40.792Z,20.47
2023-03-04T07:06:11.357Z,15.87
2023-03-04T07:08:39.403Z,17.90
2023-03-04T07:11:08.228Z,15.57
2023-03-04T07:13:38.614Z,14.33
2023-03-04T07:16:07.910Z,18.33
2023-03-04T07:18:37.973Z,17.60
2023-03-04T07:21:06.944Z,11.87
2023-03-04T07:23:38.115Z,18.10
2023-03-04T07:26:06.485Z,13.67
2023-03-04T07:28:35.155Z,15.47
2023-03-04T07:31:11.115Z,16.80
2023-03-04T07:33:40.493Z,16.73
2023-03-04T07:36:08.667Z,14.43
2023-03-04T07:38:36.725Z,10.30
2023-03-04T07:41:04.850Z,16.20
2023-03-04T07:43:32.800Z,13.70
2023-03-04T07:46:02.390Z,14.73
2023-03-04T07:48:30.392Z,18.17
2023-03-04T07:51:11.750Z,19.83
2023-03-04T07:53:41.472Z,20.50
2023-03-04T07:56:13.163Z,18.00
2023-03-04T07:58:41.053Z,15.10
2023-03-04T08:01:12.886Z,20.63
2023-03-04T08:03:40.835Z,21.83
2023-03-04T08:06:12.241Z,21.47
2023-03-04T08:08:40.875Z,25.90
2023-03-04T08:11:10.711Z,22.13
2023-03-04T08:13:39.159Z,24.10
2023-03-04T08:16:08.695Z,22.60
2023-03-04T08:18:36.836Z,16.87
2023-03-04T08:21:12.046Z,18.00
2023-03-04T08:23:42.059Z,18.50
2023-03-04T08:26:11.782Z,21.17
2023-03-04T08:28:40.126Z,21.37
2023-03-04T08:31:08.456Z,25.13
2023-03-04T08:33:37.303Z,21.20
2023-03-04T08:36:05.896Z,22.07
2023-03-04T08:38:35.379Z,20.07
2023-03-04T08:41:04.417Z,19.90
2023-03-04T08:43:33.265Z,20.43
2023-03-04T08:46:04.874Z,24.43
2023-03-04T08:48:33.330Z,18.07
2023-03-04T08:51:01.464Z,22.23
2023-03-04T08:53:29.430Z,21.23
2023-03-04T08:55:58.705Z,16.53
2023-03-04T08:58:26.809Z,16.53
2023-03-04T09:00:54.657Z,21.97
2023-03-04T09:03:22.600Z,24.57
2023-03-04T09:05:51.153Z,17.07
2023-03-04T09:08:19.861Z,20.20
2023-03-04T09:10:48.499Z,23.77
2023-03-04T09:13:19.021Z,21.13
2023-03-04T09:15:48.248Z,24.40
2023-03-04T09:18:20.570Z,25.00
2023-03-04T09:20:48.570Z,24.53
2023-03-04T09:23:17.966Z,24.00
2023-03-04T09:25:47.442Z,22.03
2023-03-04T09:28:19.773Z,22.83
2023-03-04T09:30:49.402Z,26.07
2023-03-04T09:33:17.856Z,20.30
2023-03-04T09:35:46.801Z,19.53
2023-03-04T09:38:16.805Z,22.10
2023-03-04T09:40:48.159Z,18.33
2023-03-04T09:43:22.273Z,23.03
2023-03-04T09:45:56.448Z,20.70
2023-03-04T09:48:28.503Z,21.90
2023-03-04T09:51:10.486Z,22.40
2023-03-04T09:53:48.753Z,22.30
2023-03-04T09:56:17.695Z,21.37
2023-03-04T09:58:59.830Z,20.00
2023-03-04T10:01:36.180Z,16.00
2023-03-04T10:04:09.734Z,19.77
2023-03-04T10:06:38.690Z,22.07
2023-03-04T10:09:12.721Z,21.33
2023-03-04T10:11:45.595Z,22.47
2023-03-04T10:14:32.582Z,23.13
2023-03-04T10:17:09.926Z,23.47
2023-03-04T10:19:50.570Z,21.53
2023-03-04T10:22:24.889Z,16.50
2023-03-04T10:24:57.106Z,21.70
2023-03-04T10:27:25.826Z,21.17
2023-03-04T10:29:56.350Z,15.27
2023-03-04T10:32:25.972Z,18.03
2023-03-04T10:34:54.056Z,24.30
2023-03-04T10:37:22.078Z,22.13
2023-03-04T10:39:54.878Z,19.27
2023-03-04T10:42:37.582Z,18.70
2023-03-04T10:45:20.735Z,19.97
2023-03-04T10:47:55.996Z,20.53
2023-03-04T10:50:25.780Z,18.30
2023-03-04T10:53:00.349Z,18.80
2023-03-04T10:55:31.019Z,20.03
2023-03-04T10:58:05.618Z,19.47
2023-03-04T11:00:34.743Z,19.53
2023-03-04T11:03:29.794Z,20.37
2023-03-04T11:06:23.263Z,22.03
2023-03-04T11:08:59.841Z,25.33
2023-03-04T11:11:34.914Z,18.00
2023-03-04T11:14:07.560Z,23.03
2023-03-04T11:16:35.732Z,23.40
2023-03-04T11:19:07.730Z,18.93
2023-03-04T11:21:44.082Z,17.57
2023-03-04T11:24:28.096Z,24.90
2023-03-04T11:27:02.552Z,19.47
2023-03-04T11:29:36.435Z,16.87
2023-03-04T11:32:13.033Z,17.43
2023-03-04T11:34:51.585Z,16.40
2023-03-04T11:37:25.688Z,14.93
2023-03-04T11:39:59.385Z,18.27
2023-03-04T11:42:36.658Z,19.10
2023-03-04T11:45:08.060Z,20.80
2023-03-04T11:48:03.727Z,19.83
2023-03-04T11:50:41.665Z,20.57
2023-03-04T11:53:29.493Z,20.80
2023-03-04T11:56:18.386Z,18.57
2023-03-04T11:59:13.370Z,23.27
2023-03-04T12:01:49.983Z,17.83
2023-03-04T12:04:53.753Z,19.40
2023-03-04T12:07:44.784Z,18.00
2023-03-04T12:10:25.334Z,17.90
2023-03-04T12:13:11.021Z,16.73
2023-03-04T12:15:47.668Z,16.97
2023-03-04T12:18:33.614Z,17.93
2023-03-04T12:21:18.224Z,23.23
2023-03-04T12:24:09.057Z,19.80
2023-03-04T12:26:42.057Z,21.37
2023-03-04T12:29:17.026Z,23.63
2023-03-04T12:31:47.605Z,18.37
2023-03-04T12:34:35.082Z,23.63
2023-03-04T12:37:28.747Z,18.33
2023-03-04T12:40:14.188Z,18.73
2023-03-04T12:43:08.164Z,15.87
2023-03-04T12:45:44.544Z,17.07
2023-03-04T12:48:24.578Z,17.87
2023-03-04T12:51:11.015Z,18.53
2023-03-04T12:53:44.951Z,19.30
2023-03-04T12:56:24.680Z,17.03
2023-03-04T12:58:53.354Z,17.17
2023-03-04T13:01:27.937Z,18.33
2023-03-04T13:04:04.737Z,15.63
2023-03-04T13:06:47.570Z,12.03
2023-03-04T13:09:23.866Z,18.50
2023-03-04T13:11:58.550Z,16.77
2023-03-04T13:14:37.809Z,19.27
2023-03-04T13:17:43.266Z,16.60
2023-03-04T13:20:25.966Z,18.57
2023-03-04T13:22:59.427Z,18.23
2023-03-04T13:25:34.289Z,17.27
2023-03-04T13:28:19.710Z,20.00
2023-03-04T13:31:20.570Z,18.43
2023-03-04T13:34:01.040Z,18.20
2023-03-04T13:36:57.022Z,17.23
2023-03-04T13:39:35.406Z,17.60
2023-03-04T13:42:05.583Z,18.30
2023-03-04T13:45:02.436Z,16.50
2023-03-04T13:47:46.757Z,19.27
2023-03-04T13:50:31.698Z,15.43
2023-03-04T13:53:21.452Z,18.73
2023-03-04T13:56:08.057Z,18.73
2023-03-04T13:58:36.838Z,11.70
2023-03-04T14:01:07.501Z,16.60
2023-03-04T14:03:36.330Z,15.67
2023-03-04T14:06:15.192Z,15.60
2023-03-04T14:08:43.478Z,18.40
2023-03-04T14:11:16.904Z,19.50
2023-03-04T14:13:45.518Z,14.30
2023-03-04T14:16:21.302Z,15.07
2023-03-04T14:18:59.096Z,12.70
2023-03-04T14:21:29.772Z,13.10
2023-03-04T14:24:08.432Z,20.77
2023-03-04T14:26:37.004Z,15.27
2023-03-04T14:29:20.303Z,11.93
2023-03-04T14:31:51.502Z,13.00
2023-03-04T14:34:25.758Z,17.60
2023-03-04T14:37:00.943Z,15.77
2023-03-04T14:39:35.845Z,14.63
2023-03-04T14:42:18.159Z,15.47
2023-03-04T14:44:49.253Z,17.30
2023-03-04T14:47:26.616Z,15.40
2023-03-04T14:49:55.297Z,10.27
2023-03-04T14:52:36.131Z,13.83
2023-03-04T14:55:18.574Z,12.87
2023-03-04T14:57:48.260Z,10.80
2023-03-04T15:00:19.269Z,16.93
2023-03-04T15:02:52.892Z,12.73
2023-03-04T15:05:26.608Z,15.83
2023-03-04T15:07:58.377Z,16.60
2023-03-04T15:10:29.138Z,15.50
2023-03-04T15:13:01.314Z,13.53
2023-03-04T15:15:40.980Z,13.40
2023-03-04T15:18:26.425Z,12.53
2023-03-04T15:20:59.788Z,15.23
2023-03-04T15:23:29.113Z,13.27
2023-03-04T15:25:59.415Z,15.33
2023-03-04T15:28:30.063Z,17.80
2023-03-04T15:30:58.125Z,13.77
2023-03-04T15:33:28.146Z,12.33
2023-03-04T15:36:08.818Z,13.07
2023-03-04T15:38:38.264Z,15.87
2023-03-04T15:41:06.938Z,15.27
2023-03-04T15:43:35.315Z,15.60
2023-03-04T15:46:03.754Z,15.67
2023-03-04T15:48:33.181Z,10.20
2023-03-04T15:51:02.818Z,35.87
2023-03-04T15:53:37.982Z,14.93
2023-03-04T15:56:09.538Z,51.33
2023-03-04T15:58:37.764Z,17.63
2023-03-04T16:01:06.461Z,13.63
2023-03-04T16:03:38.589Z,13.30
2023-03-04T16:06:10.250Z,13.53
2023-03-04T16:08:52.604Z,14.53
2023-03-04T16:11:23.253Z,19.43
2023-03-04T16:13:51.182Z,13.50
2023-03-04T16:16:19.355Z,16.57
2023-03-04T16:18:48.700Z,13.67
2023-03-04T16:21:23.088Z,10.43
2023-03-04T16:23:53.289Z,13.10
2023-03-04T16:26:24.969Z,13.77
2023-03-04T16:28:53.701Z,13.50
2023-03-04T16:31:22.929Z,11.43
2023-03-04T16:33:52.368Z,14.17
2023-03-04T16:36:23.443Z,14.47
2023-03-04T16:38:52.989Z,11.57
2023-03-04T16:41:25.847Z,12.73
2023-03-04T16:43:56.753Z,10.73
2023-03-04T16:46:24.989Z,11.60
2023-03-04T16:48:54.513Z,16.23
2023-03-04T16:51:25.422Z,11.00
2023-03-04T16:53:56.293Z,11.23
2023-03-04T16:56:28.369Z,16.40
2023-03-04T16:58:56.600Z,15.00
2023-03-04T17:01:29.905Z,13.50
2023-03-04T17:03:59.387Z,16.67
2023-03-04T17:06:28.200Z,10.27
2023-03-04T17:08:58.538Z,14.53
2023-03-04T17:11:26.604Z,12.90
2023-03-04T17:13:54.560Z,9.57
2023-03-04T17:16:23.051Z,12.03
2023-03-04T17:18:51.343Z,8.93
2023-03-04T17:21:26.540Z,17.17
2023-03-04T17:23:55.406Z,13.33
2023-03-04T17:26:23.674Z,11.93
2023-03-04T17:28:52.208Z,11.83
2023-03-04T17:31:21.884Z,17.37
2023-03-04T17:33:50.221Z,8.50
2023-03-04T17:36:20.014Z,9.53
2023-03-04T17:38:52.091Z,16.03
2023-03-04T17:41:35.669Z,17.03
2023-03-04T17:44:06.257Z,13.47
2023-03-04T17:46:34.326Z,9.87
2023-03-04T17:49:13.458Z,14.77
2023-03-04T17:51:43.120Z,13.20
2023-03-04T17:54:15.716Z,17.50
2023-03-04T17:56:52.157Z,12.97
2023-03-04T17:59:20.463Z,15.90
2023-03-04T18:01:57.427Z,13.30
2023-03-04T18:04:25.821Z,11.37
2023-03-04T18:06:59.655Z,13.20
2023-03-04T18:09:29.286Z,9.37
2023-03-04T18:11:57.740Z,14.90
2023-03-04T18:14:25.992Z,11.80
2023-03-04T18:16:53.926Z,11.43
2023-03-04T18:19:22.132Z,11.33
2023-03-04T18:21:50.122Z,15.60
2023-03-04T18:24:18.500Z,14.30
2023-03-04T18:26:48.855Z,14.10
2023-03-04T18:29:17.074Z,14.03
2023-03-04T18:31:45.374Z,11.90
2023-03-04T18:34:13.566Z,12.03
2023-03-04T18:36:41.928Z,11.43
2023-03-04T18:39:09.993Z,14.73
2023-03-04T18:41:38.067Z,13.07
2023-03-04T18:44:09.951Z,12.73
2023-03-04T18:46:42.532Z,14.93
2023-03-04T18:49:16.526Z,11.77
2023-03-04T18:51:45.069Z,15.37
2023-03-04T18:54:13.192Z,13.20
2023-03-04T18:56:48.172Z,15.43
2023-03-04T18:59:30.239Z,15.07
2023-03-04T19:02:14.829Z,12.57
2023-03-04T19:04:43.245Z,8.87
2023-03-04T19:07:11.561Z,11.13
2023-03-04T19:09:43.013Z,9.60
2023-03-04T19:12:12.072Z,11.80
2023-03-04T19:14:44.670Z,14.60
2023-03-04T19:17:13.199Z,10.50
2023-03-04T19:19:45.021Z,11.13
2023-03-04T19:22:14.017Z,8.03
2023-03-04T19:24:42.201Z,11.00
2023-03-04T19:27:13.659Z,10.03
2023-03-04T19:29:44.761Z,12.93
2023-03-04T19:32:13.146Z,8.90
2023-03-04T19:34:41.715Z,10.90
2023-03-04T19:37:10.078Z,10.17
2023-03-04T19:39:38.438Z,9.90
2023-03-04T19:42:12.923Z,14.13
2023-03-04T19:44:45.557Z,9.40
2023-03-04T19:47:17.088Z,11.33
2023-03-04T19:49:48.068Z,11.93
2023-03-04T19:52:16.498Z,9.63
2023-03-04T19:54:44.734Z,9.87
2023-03-04T19:57:12.944Z,8.10
2023-03-04T19:59:42.657Z,11.07
2023-03-04T20:02:10.669Z,10.30
2023-03-04T20:04:39.126Z,13.30
2023-03-04T20:07:07.178Z,8.63
2023-03-04T20:09:37.731Z,12.53
2023-03-04T20:12:06.602Z,11.03
2023-03-04T20:14:36.096Z,11.07
2023-03-04T20:17:07.245Z,10.40
2023-03-04T20:19:36.111Z,11.17
2023-03-04T20:22:08.369Z,8.73
2023-03-04T20:24:40.462Z,12.27
2023-03-04T20:27:09.588Z,12.70
2023-03-04T20:29:38.484Z,10.00
2023-03-04T20:32:11.639Z,11.43
2023-03-04T20:34:54.311Z,11.17
2023-03-04T20:37:22.723Z,9.00
2023-03-04T20:39:53.157Z,11.00
2023-03-04T20:42:21.897Z,7.87
2023-03-04T20:44:50.202Z,7.10
2023-03-04T20:47:19.874Z,10.63
2023-03-04T20:49:48.293Z,7.93
2023-03-04T20:52:16.422Z,7.17
2023-03-04T20:54:44.814Z,8.63
2023-03-04T20:57:13.429Z,12.13
2023-03-04T20:59:41.863Z,9.47
2023-03-04T21:02:15.971Z,9.17
2023-03-04T21:04:46.084Z,8.20
2023-03-04T21:07:14.539Z,8.93
2023-03-04T21:09:45.903Z,11.10
2023-03-04T21:12:20.722Z,9.83
2023-03-04T21:14:52.522Z,6.77
2023-03-04T21:17:24.885Z,10.70
2023-03-04T21:19:55.234Z,8.03
2023-03-04T21:22:23.348Z,8.30
2023-03-04T21:25:04.644Z,8.17
2023-03-04T21:27:33.470Z,11.27
2023-03-04T21:30:01.515Z,8.40
2023-03-04T21:32:30.091Z,9.60
2023-03-04T21:35:01.693Z,10.47
2023-03-04T21:37:29.764Z,11.13
2023-03-04T21:39:58.360Z,8.30
2023-03-04T21:42:26.411Z,10.27
2023-03-04T21:44:56.545Z,9.93
2023-03-04T21:47:25.112Z,9.07
2023-03-04T21:49:53.705Z,7.87
2023-03-04T21:52:24.117Z,13.17
2023-03-04T21:54:52.541Z,7.10
2023-03-04T21:57:21.034Z,5.27
2023-03-04T21:59:49.742Z,7.83
2023-03-04T22:02:20.365Z,8.07
2023-03-04T22:04:48.572Z,12.23
2023-03-04T22:07:26.420Z,10.43
2023-03-04T22:09:59.541Z,10.60
2023-03-04T22:12:30.599Z,12.00
2023-03-04T22:15:00.732Z,10.10
2023-03-04T22:17:28.946Z,11.67
2023-03-04T22:19:57.259Z,8.63
2023-03-04T22:22:30.199Z,8.50
2023-03-04T22:25:03.284Z,7.57
2023-03-04T22:27:31.212Z,9.73
2023-03-04T22:29:59.532Z,8.53
2023-03-04T22:32:27.698Z,5.40
2023-03-04T22:34:55.693Z,10.23
2023-03-04T22:37:26.596Z,10.47
2023-03-04T22:39:54.797Z,10.77
2023-03-04T22:42:24.406Z,8.40
2023-03-04T22:44:52.716Z,9.83
2023-03-04T22:47:22.628Z,7.43
2023-03-04T22:49:50.794Z,8.00
2023-03-04T22:52:19.026Z,7.80
2023-03-04T22:54:47.181Z,8.83
2023-03-04T22:57:15.551Z,8.03
2023-03-04T22:59:45.190Z,8.23
2023-03-04T23:02:18.685Z,9.13
2023-03-04T23:04:47.345Z,8.40
2023-03-04T23:07:15.532Z,8.40
2023-03-04T23:09:43.735Z,6.47
2023-03-04T23:12:11.967Z,7.90
2023-03-04T23:14:43.565Z,11.60
2023-03-04T23:17:12.865Z,10.03
2023-03-04T23:19:40.848Z,8.40
2023-03-04T23:22:09.059Z,13.30
2023-03-04T23:24:37.049Z,9.70
2023-03-04T23:27:05.393Z,9.40
2023-03-04T23:29:33.786Z,10.77
2023-03-04T23:32:02.067Z,7.77
2023-03-04T23:34:31.923Z,6.27
2023-03-04T23:36:59.956Z,9.73
2023-03-04T23:39:27.905Z,11.00
2023-03-04T23:41:55.944Z,10.23
2023-03-04T23:44:24.100Z,7.27
2023-03-04T23:46:52.042Z,7.80
2023-03-04T23:49:20.148Z,10.07
2023-03-04T23:51:49.543Z,7.77
2023-03-04T23:54:17.460Z,7.00
2023-03-04T23:56:45.581Z,6.83
2023-03-04T23:59:14.003Z,6.27
